sensor_id;sensor_type;location;lat;lon;timestamp;P1;durP1;ratioP1;P2;durP2;ratioP2
22282;SDS011;11310;51.528;21.204;2022-09-09T08:47:14;21.27;;;9.57;;
22282;SDS011;11310;51.528;21.204;2022-09-09T08:50:04;22.88;;;9.27;;
22282;SDS011;11310;51.528;21.204;2022-09-09T08:52:47;25.02;;;10.80;;
22282;SDS011;11310;51.528;21.204;2022-09-09T08:55:47;26.10;;;9.90;;
22282;SDS011;11310;51.528;21.204;2022-09-09T08:59:20;19.25;;;8.40;;
22282;SDS011;11310;51.528;21.204;2022-09-09T09:02:32;21.88;;;9.63;;
22282;SDS011;11310;51.528;21.204;2022-09-09T09:05:18;19.33;;;8.50;;
22282;SDS011;11310;51.528;21.204;2022-09-09T09:08:03;17.50;;;8.23;;
22282;SDS011;11310;51.528;21.204;2022-09-09T09:10:47;17.20;;;7.80;;
22282;SDS011;11310;51.528;21.204;2022-09-09T09:13:25;18.25;;;8.13;;
22282;SDS011;11310;51.528;21.204;2022-09-09T09:16:06;17.73;;;7.72;;
22282;SDS011;11310;51.528;21.204;2022-09-09T09:18:49;16.10;;;7.07;;
22282;SDS011;11310;51.528;21.204;2022-09-09T09:21:21;15.07;;;7.43;;
22282;SDS011;11310;51.528;21.204;2022-09-09T09:23:59;15.70;;;7.38;;
22282;SDS011;11310;51.528;21.204;2022-09-09T09:26:33;15.70;;;7.75;;
22282;SDS011;11310;51.528;21.204;2022-09-09T09:29:08;17.45;;;6.93;;
22282;SDS011;11310;51.528;21.204;2022-09-09T09:31:42;13.23;;;6.60;;
22282;SDS011;11310;51.528;21.204;2022-09-09T09:34:26;14.18;;;6.40;;
22282;SDS011;11310;51.528;21.204;2022-09-09T09:36:57;13.55;;;6.35;;
22282;SDS011;11310;51.528;21.204;2022-09-09T09:39:32;11.82;;;6.38;;
22282;SDS011;11310;51.528;21.204;2022-09-09T09:42:23;11.70;;;5.43;;
22282;SDS011;11310;51.528;21.204;2022-09-09T09:44:56;11.57;;;5.28;;
22282;SDS011;11310;51.528;21.204;2022-09-09T09:47:35;11.02;;;5.72;;
22282;SDS011;11310;51.528;21.204;2022-09-09T09:50:18;12.63;;;5.10;;
22282;SDS011;11310;51.528;21.204;2022-09-09T09:52:53;10.88;;;5.32;;
22282;SDS011;11310;51.528;21.204;2022-09-09T09:55:26;14.02;;;5.07;;
22282;SDS011;11310;51.528;21.204;2022-09-09T09:58:02;9.75;;;4.70;;
22282;SDS011;11310;51.528;21.204;2022-09-09T10:00:32;11.93;;;5.13;;
22282;SDS011;11310;51.528;21.204;2022-09-09T10:03:13;9.55;;;5.07;;
22282;SDS011;11310;51.528;21.204;2022-09-09T10:05:52;10.77;;;5.20;;
22282;SDS011;11310;51.528;21.204;2022-09-09T10:08:23;11.65;;;5.07;;
22282;SDS011;11310;51.528;21.204;2022-09-09T10:13:53;11.48;;;4.95;;
22282;SDS011;11310;51.528;21.204;2022-09-09T10:16:35;10.32;;;5.40;;
22282;SDS011;11310;51.528;21.204;2022-09-09T10:19:13;11.35;;;5.32;;
22282;SDS011;11310;51.528;21.204;2022-09-09T10:21:54;11.00;;;5.13;;
22282;SDS011;11310;51.528;21.204;2022-09-09T10:24:41;12.52;;;5.15;;
22282;SDS011;11310;51.528;21.204;2022-09-09T10:27:22;12.77;;;6.00;;
22282;SDS011;11310;51.528;21.204;2022-09-09T10:30:06;10.27;;;5.43;;
22282;SDS011;11310;51.528;21.204;2022-09-09T10:32:48;13.65;;;6.28;;
22282;SDS011;11310;51.528;21.204;2022-09-09T10:35:24;11.00;;;5.45;;
22282;SDS011;11310;51.528;21.204;2022-09-09T10:38:03;11.45;;;6.10;;
22282;SDS011;11310;51.528;21.204;2022-09-09T10:43:52;10.18;;;5.47;;
22282;SDS011;11310;51.528;21.204;2022-09-09T10:46:45;12.25;;;5.70;;
22282;SDS011;11310;51.528;21.204;2022-09-09T10:52:26;14.70;;;6.10;;
22282;SDS011;11310;51.528;21.204;2022-09-09T10:55:06;12.23;;;6.05;;
22282;SDS011;11310;51.528;21.204;2022-09-09T10:57:42;12.88;;;6.22;;
22282;SDS011;11310;51.528;21.204;2022-09-09T11:00:15;12.60;;;6.43;;
22282;SDS011;11310;51.528;21.204;2022-09-09T11:02:47;10.38;;;5.63;;
22282;SDS011;11310;51.528;21.204;2022-09-09T11:05:21;17.52;;;6.45;;
22282;SDS011;11310;51.528;21.204;2022-09-09T11:07:56;12.48;;;6.55;;
22282;SDS011;11310;51.528;21.204;2022-09-09T11:10:37;14.68;;;6.85;;
22282;SDS011;11310;51.528;21.204;2022-09-09T11:13:11;11.65;;;6.20;;
22282;SDS011;11310;51.528;21.204;2022-09-09T11:15:49;12.15;;;6.50;;
22282;SDS011;11310;51.528;21.204;2022-09-09T11:18:25;11.65;;;6.68;;
22282;SDS011;11310;51.528;21.204;2022-09-09T11:21:00;15.55;;;7.00;;
22282;SDS011;11310;51.528;21.204;2022-09-09T11:23:35;10.75;;;5.85;;
22282;SDS011;11310;51.528;21.204;2022-09-09T11:26:13;12.23;;;6.72;;
22282;SDS011;11310;51.528;21.204;2022-09-09T11:28:52;14.05;;;7.05;;
22282;SDS011;11310;51.528;21.204;2022-09-09T11:31:38;13.05;;;6.75;;
22282;SDS011;11310;51.528;21.204;2022-09-09T11:34:19;15.52;;;7.47;;
22282;SDS011;11310;51.528;21.204;2022-09-09T11:37:07;12.27;;;6.22;;
22282;SDS011;11310;51.528;21.204;2022-09-09T11:39:51;16.13;;;6.55;;
22282;SDS011;11310;51.528;21.204;2022-09-09T11:42:34;14.85;;;6.72;;
22282;SDS011;11310;51.528;21.204;2022-09-09T11:45:11;12.60;;;6.03;;
22282;SDS011;11310;51.528;21.204;2022-09-09T11:47:53;14.38;;;7.18;;
22282;SDS011;11310;51.528;21.204;2022-09-09T11:53:14;13.38;;;6.07;;
22282;SDS011;11310;51.528;21.204;2022-09-09T11:58:44;13.02;;;6.35;;
22282;SDS011;11310;51.528;21.204;2022-09-09T12:01:37;17.52;;;6.65;;
22282;SDS011;11310;51.528;21.204;2022-09-09T12:06:59;12.57;;;6.38;;
22282;SDS011;11310;51.528;21.204;2022-09-09T12:09:31;13.13;;;6.45;;
22282;SDS011;11310;51.528;21.204;2022-09-09T12:12:24;13.43;;;6.50;;
22282;SDS011;11310;51.528;21.204;2022-09-09T12:15:01;12.80;;;6.18;;
22282;SDS011;11310;51.528;21.204;2022-09-09T12:17:49;13.77;;;6.68;;
22282;SDS011;11310;51.528;21.204;2022-09-09T12:20:21;15.13;;;7.20;;
22282;SDS011;11310;51.528;21.204;2022-09-09T12:22:53;12.98;;;6.57;;
22282;SDS011;11310;51.528;21.204;2022-09-09T12:25:42;14.00;;;6.88;;
22282;SDS011;11310;51.528;21.204;2022-09-09T12:28:19;11.30;;;6.65;;
22282;SDS011;11310;51.528;21.204;2022-09-09T12:30:54;12.85;;;6.43;;
22282;SDS011;11310;51.528;21.204;2022-09-09T12:33:33;15.73;;;7.05;;
22282;SDS011;11310;51.528;21.204;2022-09-09T12:36:03;16.00;;;6.50;;
22282;SDS011;11310;51.528;21.204;2022-09-09T12:38:38;14.32;;;6.57;;
22282;SDS011;11310;51.528;21.204;2022-09-09T12:41:17;15.02;;;6.80;;
22282;SDS011;11310;51.528;21.204;2022-09-09T12:43:48;13.98;;;6.57;;
22282;SDS011;11310;51.528;21.204;2022-09-09T12:46:23;12.40;;;6.57;;
22282;SDS011;11310;51.528;21.204;2022-09-09T12:48:59;12.55;;;6.60;;
22282;SDS011;11310;51.528;21.204;2022-09-09T12:51:28;12.98;;;6.50;;
22282;SDS011;11310;51.528;21.204;2022-09-09T12:53:59;12.88;;;6.85;;
22282;SDS011;11310;51.528;21.204;2022-09-09T12:56:29;14.45;;;6.97;;
22282;SDS011;11310;51.528;21.204;2022-09-09T12:59:00;13.73;;;6.15;;
22282;SDS011;11310;51.528;21.204;2022-09-09T13:01:31;12.23;;;6.93;;
22282;SDS011;11310;51.528;21.204;2022-09-09T13:04:01;14.98;;;7.18;;
22282;SDS011;11310;51.528;21.204;2022-09-09T13:06:32;16.17;;;7.75;;
22282;SDS011;11310;51.528;21.204;2022-09-09T13:09:01;13.07;;;7.18;;
22282;SDS011;11310;51.528;21.204;2022-09-09T13:11:31;15.90;;;7.65;;
22282;SDS011;11310;51.528;21.204;2022-09-09T13:14:05;13.25;;;7.45;;
22282;SDS011;11310;51.528;21.204;2022-09-09T13:16:37;12.52;;;7.15;;
22282;SDS011;11310;51.528;21.204;2022-09-09T13:19:09;14.15;;;6.57;;
22282;SDS011;11310;51.528;21.204;2022-09-09T13:21:42;13.20;;;7.13;;
22282;SDS011;11310;51.528;21.204;2022-09-09T13:24:23;13.90;;;6.82;;
22282;SDS011;11310;51.528;21.204;2022-09-09T13:26:57;11.20;;;6.13;;
22282;SDS011;11310;51.528;21.204;2022-09-09T13:29:28;17.45;;;7.72;;
22282;SDS011;11310;51.528;21.204;2022-09-09T13:32:04;13.10;;;6.45;;
22282;SDS011;11310;51.528;21.204;2022-09-09T13:34:35;12.82;;;6.18;;
22282;SDS011;11310;51.528;21.204;2022-09-09T13:37:04;11.18;;;5.82;;
22282;SDS011;11310;51.528;21.204;2022-09-09T13:39:35;13.95;;;6.97;;
22282;SDS011;11310;51.528;21.204;2022-09-09T13:42:19;12.13;;;6.50;;
22282;SDS011;11310;51.528;21.204;2022-09-09T13:44:55;12.60;;;6.40;;
22282;SDS011;11310;51.528;21.204;2022-09-09T13:47:30;13.50;;;6.97;;
22282;SDS011;11310;51.528;21.204;2022-09-09T13:50:09;11.63;;;6.60;;
22282;SDS011;11310;51.528;21.204;2022-09-09T13:52:47;16.38;;;7.63;;
22282;SDS011;11310;51.528;21.204;2022-09-09T13:55:17;14.75;;;7.35;;
22282;SDS011;11310;51.528;21.204;2022-09-09T14:00:21;13.98;;;7.10;;
22282;SDS011;11310;51.528;21.204;2022-09-09T14:02:52;15.82;;;7.47;;
22282;SDS011;11310;51.528;21.204;2022-09-09T14:05:22;13.35;;;7.28;;
22282;SDS011;11310;51.528;21.204;2022-09-09T14:07:51;14.05;;;7.40;;
22282;SDS011;11310;51.528;21.204;2022-09-09T14:10:20;16.67;;;7.50;;
22282;SDS011;11310;51.528;21.204;2022-09-09T14:12:49;14.18;;;7.47;;
22282;SDS011;11310;51.528;21.204;2022-09-09T14:15:18;16.85;;;7.68;;
22282;SDS011;11310;51.528;21.204;2022-09-09T14:17:47;14.98;;;7.70;;
22282;SDS011;11310;51.528;21.204;2022-09-09T14:20:17;17.58;;;8.38;;
22282;SDS011;11310;51.528;21.204;2022-09-09T14:22:46;16.25;;;8.52;;
22282;SDS011;11310;51.528;21.204;2022-09-09T14:25:15;16.70;;;7.57;;
22282;SDS011;11310;51.528;21.204;2022-09-09T14:27:44;16.90;;;7.30;;
22282;SDS011;11310;51.528;21.204;2022-09-09T14:30:13;14.98;;;7.88;;
22282;SDS011;11310;51.528;21.204;2022-09-09T14:32:42;15.77;;;8.48;;
22282;SDS011;11310;51.528;21.204;2022-09-09T14:35:10;15.27;;;7.80;;
22282;SDS011;11310;51.528;21.204;2022-09-09T14:37:41;19.65;;;8.63;;
22282;SDS011;11310;51.528;21.204;2022-09-09T14:40:10;21.05;;;8.05;;
22282;SDS011;11310;51.528;21.204;2022-09-09T14:42:39;16.00;;;7.90;;
22282;SDS011;11310;51.528;21.204;2022-09-09T14:45:08;13.70;;;7.45;;
22282;SDS011;11310;51.528;21.204;2022-09-09T14:47:37;16.80;;;7.80;;
22282;SDS011;11310;51.528;21.204;2022-09-09T14:50:06;17.10;;;7.78;;
22282;SDS011;11310;51.528;21.204;2022-09-09T14:52:36;17.50;;;8.30;;
22282;SDS011;11310;51.528;21.204;2022-09-09T14:55:08;14.70;;;7.88;;
22282;SDS011;11310;51.528;21.204;2022-09-09T14:57:36;17.17;;;8.38;;
22282;SDS011;11310;51.528;21.204;2022-09-09T15:00:06;15.25;;;8.25;;
22282;SDS011;11310;51.528;21.204;2022-09-09T15:02:36;15.02;;;8.82;;
22282;SDS011;11310;51.528;21.204;2022-09-09T15:05:05;14.20;;;7.85;;
22282;SDS011;11310;51.528;21.204;2022-09-09T15:07:35;16.17;;;7.68;;
22282;SDS011;11310;51.528;21.204;2022-09-09T15:10:04;18.42;;;8.55;;
22282;SDS011;11310;51.528;21.204;2022-09-09T15:12:35;17.05;;;8.27;;
22282;SDS011;11310;51.528;21.204;2022-09-09T15:15:04;15.55;;;8.18;;
22282;SDS011;11310;51.528;21.204;2022-09-09T15:17:33;18.55;;;8.38;;
22282;SDS011;11310;51.528;21.204;2022-09-09T15:20:03;15.60;;;7.90;;
22282;SDS011;11310;51.528;21.204;2022-09-09T15:22:32;17.30;;;7.53;;
22282;SDS011;11310;51.528;21.204;2022-09-09T15:25:04;19.10;;;7.00;;
22282;SDS011;11310;51.528;21.204;2022-09-09T15:27:36;15.80;;;8.60;;
22282;SDS011;11310;51.528;21.204;2022-09-09T15:30:06;14.20;;;7.63;;
22282;SDS011;11310;51.528;21.204;2022-09-09T15:32:35;16.10;;;7.68;;
22282;SDS011;11310;51.528;21.204;2022-09-09T15:35:05;15.40;;;7.85;;
22282;SDS011;11310;51.528;21.204;2022-09-09T15:37:36;15.53;;;7.97;;
22282;SDS011;11310;51.528;21.204;2022-09-09T15:40:05;14.07;;;7.45;;
22282;SDS011;11310;51.528;21.204;2022-09-09T15:42:34;13.82;;;7.25;;
22282;SDS011;11310;51.528;21.204;2022-09-09T15:45:05;18.67;;;8.40;;
22282;SDS011;11310;51.528;21.204;2022-09-09T15:47:35;18.73;;;8.23;;
22282;SDS011;11310;51.528;21.204;2022-09-09T15:50:04;16.88;;;8.18;;
22282;SDS011;11310;51.528;21.204;2022-09-09T15:52:36;17.92;;;8.23;;
22282;SDS011;11310;51.528;21.204;2022-09-09T15:55:05;18.10;;;8.40;;
22282;SDS011;11310;51.528;21.204;2022-09-09T15:57:34;17.63;;;9.00;;
22282;SDS011;11310;51.528;21.204;2022-09-09T16:00:05;20.70;;;8.90;;
22282;SDS011;11310;51.528;21.204;2022-09-09T16:02:35;17.50;;;8.15;;
22282;SDS011;11310;51.528;21.204;2022-09-09T16:05:04;19.90;;;8.75;;
22282;SDS011;11310;51.528;21.204;2022-09-09T16:07:34;22.33;;;9.02;;
22282;SDS011;11310;51.528;21.204;2022-09-09T16:10:03;14.13;;;7.90;;
22282;SDS011;11310;51.528;21.204;2022-09-09T16:12:33;24.02;;;9.50;;
22282;SDS011;11310;51.528;21.204;2022-09-09T16:15:01;17.85;;;9.13;;
22282;SDS011;11310;51.528;21.204;2022-09-09T16:17:32;19.85;;;9.32;;
22282;SDS011;11310;51.528;21.204;2022-09-09T16:20:05;20.60;;;8.93;;
22282;SDS011;11310;51.528;21.204;2022-09-09T16:22:35;19.85;;;8.82;;
22282;SDS011;11310;51.528;21.204;2022-09-09T16:25:05;18.95;;;9.60;;
22282;SDS011;11310;51.528;21.204;2022-09-09T16:27:34;18.02;;;8.90;;
22282;SDS011;11310;51.528;21.204;2022-09-09T16:30:06;24.63;;;9.73;;
22282;SDS011;11310;51.528;21.204;2022-09-09T16:32:37;19.00;;;9.15;;
22282;SDS011;11310;51.528;21.204;2022-09-09T16:35:06;18.50;;;9.07;;
22282;SDS011;11310;51.528;21.204;2022-09-09T16:37:35;22.92;;;10.57;;
22282;SDS011;11310;51.528;21.204;2022-09-09T16:40:04;25.20;;;10.75;;
22282;SDS011;11310;51.528;21.204;2022-09-09T16:42:33;20.60;;;10.27;;
22282;SDS011;11310;51.528;21.204;2022-09-09T16:45:06;18.20;;;9.90;;
22282;SDS011;11310;51.528;21.204;2022-09-09T16:47:36;26.23;;;10.82;;
22282;SDS011;11310;51.528;21.204;2022-09-09T16:50:05;24.80;;;10.88;;
22282;SDS011;11310;51.528;21.204;2022-09-09T16:52:34;22.85;;;10.10;;
22282;SDS011;11310;51.528;21.204;2022-09-09T16:55:04;25.60;;;11.43;;
22282;SDS011;11310;51.528;21.204;2022-09-09T16:57:34;21.83;;;10.57;;
22282;SDS011;11310;51.528;21.204;2022-09-09T17:00:03;29.35;;;12.32;;
22282;SDS011;11310;51.528;21.204;2022-09-09T17:02:34;27.38;;;12.45;;
22282;SDS011;11310;51.528;21.204;2022-09-09T17:05:04;28.48;;;11.75;;
22282;SDS011;11310;51.528;21.204;2022-09-09T17:07:33;23.77;;;10.70;;
22282;SDS011;11310;51.528;21.204;2022-09-09T17:10:02;29.50;;;11.85;;
22282;SDS011;11310;51.528;21.204;2022-09-09T17:12:32;26.95;;;11.23;;
22282;SDS011;11310;51.528;21.204;2022-09-09T17:15:07;28.30;;;12.55;;
22282;SDS011;11310;51.528;21.204;2022-09-09T17:17:36;31.92;;;12.15;;
22282;SDS011;11310;51.528;21.204;2022-09-09T17:20:07;28.60;;;11.82;;
22282;SDS011;11310;51.528;21.204;2022-09-09T17:22:36;33.45;;;11.80;;
22282;SDS011;11310;51.528;21.204;2022-09-09T17:25:08;25.60;;;11.07;;
22282;SDS011;11310;51.528;21.204;2022-09-09T17:27:40;28.73;;;12.52;;
22282;SDS011;11310;51.528;21.204;2022-09-09T17:30:09;33.80;;;10.93;;
22282;SDS011;11310;51.528;21.204;2022-09-09T17:32:38;25.98;;;11.50;;
22282;SDS011;11310;51.528;21.204;2022-09-09T17:35:10;31.30;;;12.18;;
22282;SDS011;11310;51.528;21.204;2022-09-09T17:37:38;26.88;;;10.98;;
22282;SDS011;11310;51.528;21.204;2022-09-09T17:40:07;28.23;;;12.73;;
22282;SDS011;11310;51.528;21.204;2022-09-09T17:42:36;23.50;;;10.88;;
22282;SDS011;11310;51.528;21.204;2022-09-09T17:45:05;23.95;;;11.07;;
22282;SDS011;11310;51.528;21.204;2022-09-09T17:47:34;21.65;;;11.02;;
22282;SDS011;11310;51.528;21.204;2022-09-09T17:50:03;25.65;;;11.35;;
22282;SDS011;11310;51.528;21.204;2022-09-09T17:52:34;27.48;;;11.90;;
22282;SDS011;11310;51.528;21.204;2022-09-09T17:55:05;23.52;;;11.35;;
22282;SDS011;11310;51.528;21.204;2022-09-09T17:57:36;26.45;;;11.85;;
22282;SDS011;11310;51.528;21.204;2022-09-09T18:00:05;27.92;;;12.13;;
22282;SDS011;11310;51.528;21.204;2022-09-09T18:02:37;24.27;;;11.23;;
22282;SDS011;11310;51.528;21.204;2022-09-09T18:05:06;27.67;;;11.57;;
22282;SDS011;11310;51.528;21.204;2022-09-09T18:07:38;25.00;;;11.77;;
22282;SDS011;11310;51.528;21.204;2022-09-09T18:10:07;24.48;;;11.75;;
22282;SDS011;11310;51.528;21.204;2022-09-09T18:12:36;24.98;;;12.73;;
22282;SDS011;11310;51.528;21.204;2022-09-09T18:15:05;25.20;;;12.15;;
22282;SDS011;11310;51.528;21.204;2022-09-09T18:17:35;28.63;;;13.50;;
22282;SDS011;11310;51.528;21.204;2022-09-09T18:20:04;25.00;;;12.40;;
22282;SDS011;11310;51.528;21.204;2022-09-09T18:22:34;26.02;;;12.52;;
22282;SDS011;11310;51.528;21.204;2022-09-09T18:25:06;29.10;;;13.35;;
22282;SDS011;11310;51.528;21.204;2022-09-09T18:27:35;30.48;;;13.30;;
22282;SDS011;11310;51.528;21.204;2022-09-09T18:30:05;25.85;;;13.98;;
22282;SDS011;11310;51.528;21.204;2022-09-09T18:32:35;32.10;;;13.32;;
22282;SDS011;11310;51.528;21.204;2022-09-09T18:35:05;27.75;;;13.82;;
22282;SDS011;11310;51.528;21.204;2022-09-09T18:37:34;27.48;;;13.88;;
22282;SDS011;11310;51.528;21.204;2022-09-09T18:40:05;27.55;;;13.68;;
22282;SDS011;11310;51.528;21.204;2022-09-09T18:42:35;30.17;;;14.07;;
22282;SDS011;11310;51.528;21.204;2022-09-09T18:45:04;27.85;;;13.82;;
22282;SDS011;11310;51.528;21.204;2022-09-09T18:47:35;21.98;;;12.93;;
22282;SDS011;11310;51.528;21.204;2022-09-09T18:50:04;27.75;;;13.27;;
22282;SDS011;11310;51.528;21.204;2022-09-09T18:52:34;26.10;;;13.35;;
22282;SDS011;11310;51.528;21.204;2022-09-09T18:55:03;25.90;;;13.77;;
22282;SDS011;11310;51.528;21.204;2022-09-09T18:57:37;26.70;;;13.45;;
22282;SDS011;11310;51.528;21.204;2022-09-09T19:00:08;26.92;;;13.85;;
22282;SDS011;11310;51.528;21.204;2022-09-09T19:02:38;28.08;;;15.00;;
22282;SDS011;11310;51.528;21.204;2022-09-09T19:05:07;27.70;;;15.40;;
22282;SDS011;11310;51.528;21.204;2022-09-09T19:07:36;27.30;;;14.88;;
22282;SDS011;11310;51.528;21.204;2022-09-09T19:10:07;29.20;;;14.68;;
22282;SDS011;11310;51.528;21.204;2022-09-09T19:12:36;27.75;;;14.55;;
22282;SDS011;11310;51.528;21.204;2022-09-09T19:15:07;27.98;;;14.75;;
22282;SDS011;11310;51.528;21.204;2022-09-09T19:17:36;27.73;;;15.13;;
22282;SDS011;11310;51.528;21.204;2022-09-09T19:20:05;29.42;;;15.05;;
22282;SDS011;11310;51.528;21.204;2022-09-09T19:22:36;27.80;;;14.90;;
22282;SDS011;11310;51.528;21.204;2022-09-09T19:25:04;29.02;;;15.30;;
22282;SDS011;11310;51.528;21.204;2022-09-09T19:27:36;34.15;;;15.77;;
22282;SDS011;11310;51.528;21.204;2022-09-09T19:30:04;28.67;;;15.95;;
22282;SDS011;11310;51.528;21.204;2022-09-09T19:32:34;28.08;;;15.13;;
22282;SDS011;11310;51.528;21.204;2022-09-09T19:35:20;26.13;;;14.43;;
22282;SDS011;11310;51.528;21.204;2022-09-09T19:37:49;27.23;;;14.65;;
22282;SDS011;11310;51.528;21.204;2022-09-09T19:40:18;27.90;;;15.02;;
22282;SDS011;11310;51.528;21.204;2022-09-09T19:42:49;29.73;;;15.25;;
22282;SDS011;11310;51.528;21.204;2022-09-09T19:45:19;26.92;;;14.50;;
22282;SDS011;11310;51.528;21.204;2022-09-09T19:47:49;32.38;;;14.68;;
22282;SDS011;11310;51.528;21.204;2022-09-09T19:50:17;26.38;;;14.02;;
22282;SDS011;11310;51.528;21.204;2022-09-09T19:52:46;27.33;;;13.93;;
22282;SDS011;11310;51.528;21.204;2022-09-09T19:55:15;30.65;;;14.30;;
22282;SDS011;11310;51.528;21.204;2022-09-09T19:57:47;28.60;;;14.23;;
22282;SDS011;11310;51.528;21.204;2022-09-09T20:00:17;27.45;;;13.98;;
22282;SDS011;11310;51.528;21.204;2022-09-09T20:02:45;27.27;;;13.75;;
22282;SDS011;11310;51.528;21.204;2022-09-09T20:05:37;26.47;;;13.53;;
22282;SDS011;11310;51.528;21.204;2022-09-09T20:08:06;27.50;;;13.35;;
22282;SDS011;11310;51.528;21.204;2022-09-09T20:10:35;24.40;;;14.35;;
22282;SDS011;11310;51.528;21.204;2022-09-09T20:13:05;27.35;;;13.10;;
22282;SDS011;11310;51.528;21.204;2022-09-09T20:15:35;24.90;;;13.20;;
22282;SDS011;11310;51.528;21.204;2022-09-09T20:18:04;27.35;;;13.93;;
22282;SDS011;11310;51.528;21.204;2022-09-09T20:20:32;25.80;;;13.68;;
22282;SDS011;11310;51.528;21.204;2022-09-09T20:23:00;23.13;;;13.55;;
22282;SDS011;11310;51.528;21.204;2022-09-09T20:25:29;22.67;;;12.93;;
22282;SDS011;11310;51.528;21.204;2022-09-09T20:27:57;26.25;;;13.32;;
22282;SDS011;11310;51.528;21.204;2022-09-09T20:30:26;25.45;;;13.00;;
22282;SDS011;11310;51.528;21.204;2022-09-09T20:32:56;21.55;;;12.65;;
22282;SDS011;11310;51.528;21.204;2022-09-09T20:35:24;20.75;;;11.07;;
22282;SDS011;11310;51.528;21.204;2022-09-09T20:37:55;23.17;;;11.57;;
22282;SDS011;11310;51.528;21.204;2022-09-09T20:40:24;22.40;;;11.32;;
22282;SDS011;11310;51.528;21.204;2022-09-09T20:42:59;21.00;;;10.98;;
22282;SDS011;11310;51.528;21.204;2022-09-09T20:45:27;24.67;;;11.25;;
22282;SDS011;11310;51.528;21.204;2022-09-09T20:47:57;20.23;;;11.20;;
22282;SDS011;11310;51.528;21.204;2022-09-09T20:50:26;20.70;;;10.75;;
22282;SDS011;11310;51.528;21.204;2022-09-09T20:52:54;24.25;;;11.27;;
22282;SDS011;11310;51.528;21.204;2022-09-09T20:55:23;19.48;;;10.60;;
22282;SDS011;11310;51.528;21.204;2022-09-09T20:57:52;19.45;;;10.57;;
22282;SDS011;11310;51.528;21.204;2022-09-09T21:00:24;22.67;;;11.55;;
22282;SDS011;11310;51.528;21.204;2022-09-09T21:02:52;22.05;;;11.32;;
22282;SDS011;11310;51.528;21.204;2022-09-09T21:05:23;22.55;;;11.35;;
22282;SDS011;11310;51.528;21.204;2022-09-09T21:07:53;26.65;;;12.40;;
22282;SDS011;11310;51.528;21.204;2022-09-09T21:10:22;23.02;;;11.43;;
22282;SDS011;11310;51.528;21.204;2022-09-09T21:12:52;20.58;;;11.30;;
22282;SDS011;11310;51.528;21.204;2022-09-09T21:15:21;20.40;;;11.45;;
22282;SDS011;11310;51.528;21.204;2022-09-09T21:17:50;21.08;;;11.10;;
22282;SDS011;11310;51.528;21.204;2022-09-09T21:20:20;16.45;;;9.95;;
22282;SDS011;11310;51.528;21.204;2022-09-09T21:22:50;16.08;;;10.10;;
22282;SDS011;11310;51.528;21.204;2022-09-09T21:25:20;17.23;;;9.73;;
22282;SDS011;11310;51.528;21.204;2022-09-09T21:27:50;17.10;;;9.57;;
22282;SDS011;11310;51.528;21.204;2022-09-09T21:30:19;17.17;;;9.30;;
22282;SDS011;11310;51.528;21.204;2022-09-09T21:33:28;16.70;;;9.32;;
22282;SDS011;11310;51.528;21.204;2022-09-09T21:36:52;17.42;;;8.85;;
22282;SDS011;11310;51.528;21.204;2022-09-09T21:39:22;15.43;;;9.13;;
22282;SDS011;11310;51.528;21.204;2022-09-09T21:41:51;18.13;;;9.80;;
22282;SDS011;11310;51.528;21.204;2022-09-09T21:44:20;16.42;;;9.88;;
22282;SDS011;11310;51.528;21.204;2022-09-09T21:46:49;18.30;;;9.95;;
22282;SDS011;11310;51.528;21.204;2022-09-09T21:49:18;20.17;;;9.80;;
22282;SDS011;11310;51.528;21.204;2022-09-09T21:51:47;19.38;;;9.88;;
22282;SDS011;11310;51.528;21.204;2022-09-09T21:54:17;19.10;;;9.20;;
22282;SDS011;11310;51.528;21.204;2022-09-09T21:56:48;17.73;;;9.95;;
22282;SDS011;11310;51.528;21.204;2022-09-09T21:59:18;19.65;;;10.20;;
22282;SDS011;11310;51.528;21.204;2022-09-09T22:01:46;19.75;;;11.00;;
22282;SDS011;11310;51.528;21.204;2022-09-09T22:04:15;20.05;;;10.90;;
22282;SDS011;11310;51.528;21.204;2022-09-09T22:06:44;18.48;;;9.93;;
22282;SDS011;11310;51.528;21.204;2022-09-09T22:09:13;18.23;;;10.45;;
22282;SDS011;11310;51.528;21.204;2022-09-09T22:11:42;18.10;;;9.95;;
22282;SDS011;11310;51.528;21.204;2022-09-09T22:14:12;18.85;;;10.63;;
22282;SDS011;11310;51.528;21.204;2022-09-09T22:16:42;17.95;;;10.25;;
22282;SDS011;11310;51.528;21.204;2022-09-09T22:19:11;18.02;;;10.48;;
22282;SDS011;11310;51.528;21.204;2022-09-09T22:21:39;19.45;;;10.32;;
22282;SDS011;11310;51.528;21.204;2022-09-09T22:24:08;17.38;;;10.45;;
22282;SDS011;11310;51.528;21.204;2022-09-09T22:26:39;18.17;;;9.93;;
22282;SDS011;11310;51.528;21.204;2022-09-09T22:29:08;19.10;;;10.23;;
22282;SDS011;11310;51.528;21.204;2022-09-09T22:31:39;22.25;;;10.82;;
22282;SDS011;11310;51.528;21.204;2022-09-09T22:34:09;18.73;;;10.57;;
22282;SDS011;11310;51.528;21.204;2022-09-09T22:36:38;17.70;;;10.73;;
22282;SDS011;11310;51.528;21.204;2022-09-09T22:39:06;20.80;;;10.95;;
22282;SDS011;11310;51.528;21.204;2022-09-09T22:41:35;20.08;;;11.02;;
22282;SDS011;11310;51.528;21.204;2022-09-09T22:44:03;19.67;;;11.20;;
22282;SDS011;11310;51.528;21.204;2022-09-09T22:46:35;20.10;;;10.45;;
22282;SDS011;11310;51.528;21.204;2022-09-09T22:49:05;17.45;;;10.90;;
22282;SDS011;11310;51.528;21.204;2022-09-09T22:51:35;18.15;;;10.80;;
22282;SDS011;11310;51.528;21.204;2022-09-09T22:54:03;17.98;;;9.82;;
22282;SDS011;11310;51.528;21.204;2022-09-09T22:56:33;17.63;;;10.25;;
22282;SDS011;11310;51.528;21.204;2022-09-09T22:59:02;16.67;;;9.75;;
22282;SDS011;11310;51.528;21.204;2022-09-09T23:01:31;17.58;;;9.73;;
22282;SDS011;11310;51.528;21.204;2022-09-09T23:04:01;15.32;;;9.02;;
22282;SDS011;11310;51.528;21.204;2022-09-09T23:06:31;17.75;;;9.32;;
22282;SDS011;11310;51.528;21.204;2022-09-09T23:09:01;16.30;;;8.85;;
22282;SDS011;11310;51.528;21.204;2022-09-09T23:11:31;18.48;;;9.13;;
22282;SDS011;11310;51.528;21.204;2022-09-09T23:14:01;17.65;;;9.32;;
22282;SDS011;11310;51.528;21.204;2022-09-09T23:16:33;16.70;;;9.77;;
22282;SDS011;11310;51.528;21.204;2022-09-09T23:19:07;18.67;;;10.25;;
22282;SDS011;11310;51.528;21.204;2022-09-09T23:21:38;18.10;;;10.27;;
22282;SDS011;11310;51.528;21.204;2022-09-09T23:24:09;20.50;;;10.05;;
22282;SDS011;11310;51.528;21.204;2022-09-09T23:26:38;18.25;;;9.93;;
22282;SDS011;11310;51.528;21.204;2022-09-09T23:29:08;17.80;;;10.13;;
22282;SDS011;11310;51.528;21.204;2022-09-09T23:31:40;19.60;;;10.60;;
22282;SDS011;11310;51.528;21.204;2022-09-09T23:34:10;18.40;;;9.70;;
22282;SDS011;11310;51.528;21.204;2022-09-09T23:36:43;17.48;;;9.27;;
22282;SDS011;11310;51.528;21.204;2022-09-09T23:39:14;19.85;;;9.98;;
22282;SDS011;11310;51.528;21.204;2022-09-09T23:41:45;21.20;;;11.18;;
22282;SDS011;11310;51.528;21.204;2022-09-09T23:44:16;21.13;;;10.10;;
22282;SDS011;11310;51.528;21.204;2022-09-09T23:46:45;21.20;;;10.20;;
22282;SDS011;11310;51.528;21.204;2022-09-09T23:49:13;19.80;;;10.73;;
22282;SDS011;11310;51.528;21.204;2022-09-09T23:51:43;19.90;;;10.02;;
22282;SDS011;11310;51.528;21.204;2022-09-09T23:54:15;21.50;;;10.57;;